Home

Weather

KSLC Current Conditions

KSLC 190854Z 14005KT 10SM FEW120 16/08 A3004 RMK AO2 SLP129 T01610078 51006

KSLC Aviation Forecast

TAF KSLC 190547Z 1906/2012 32010KT P6SM SCT120 FM191200 14005KT P6SM SCT100 BKN120 FM191600 32010KT P6SM FEW090 SCT120 FM200400 15005KT P6SM SKC


61° F
Partly Cloudy
Partly Cloudy

Currently
Currently
Currently
Currently
Currently
Currently